| Date | Time | Temp. (oF) | Dew Point (oF) | Rel. Hum. (%) | Press. (in.) | Wind Dir. | Wind Speed (mph) | Hourly Rainfall (in.) |
|
|---|---|---|---|---|---|---|---|---|---|
| 1 | 07/22 | 00:00 | 71 | 64 | 80 | 29.65 | N | 0 | 0.00 |
| 2 | 07/21 | 23:00 | 71 | 64 | 79 | 29.64 | WNW | 4 | 0.00 |
| 3 | 07/21 | 22:00 | 72 | 63 | 76 | 29.63 | NNE | 0 | 0.00 |
| 4 | 07/21 | 21:00 | 73 | 63 | 73 | 29.61 | WNW | 0 | 0.00 |
| 5 | 07/21 | 20:00 | 76 | 64 | 67 | 29.59 | NNE | 2 | 0.00 |
| 6 | 07/21 | 19:00 | 81 | 62 | 53 | 29.57 | N | 6 | 0.00 |
| 7 | 07/21 | 18:00 | 86 | 66 | 52 | 29.52 | W | 4 | 0.00 |
| 8 | 07/21 | 17:00 | 87 | 68 | 54 | 29.52 | WNW | 6 | 0.00 |
| 9 | 07/21 | 16:00 | 86 | 68 | 56 | 29.54 | WSW | 2 | 0.00 |
| 10 | 07/21 | 15:00 | 86 | 70 | 61 | 29.54 | W | 8 | 0.00 |
| 11 | 07/21 | 14:00 | 85 | 70 | 63 | 29.57 | NE | 2 | 0.00 |
| 12 | 07/21 | 13:00 | 84 | 70 | 65 | 29.58 | W | 5 | 0.00 |
| 13 | 07/21 | 12:00 | 83 | 71 | 68 | 29.59 | WNW | 4 | 0.00 |
| 14 | 07/21 | 11:00 | 82 | 70 | 69 | 29.60 | SW | 2 | 0.00 |
| 15 | 07/21 | 10:00 | 80 | 70 | 73 | 29.60 | SW | 3 | 0.00 |
| 16 | 07/21 | 09:00 | 76 | 70 | 82 | 29.61 | SW | 0 | 0.00 |
| 17 | 07/21 | 08:00 | 75 | 70 | 85 | 29.61 | SSW | 0 | 0.00 |
| 18 | 07/21 | 07:00 | 72 | 67 | 85 | 29.61 | SSW | 0 | 0.00 |
| 19 | 07/21 | 06:00 | 72 | 67 | 85 | 29.61 | SW | 0 | 0.00 |
| 20 | 07/21 | 05:00 | 72 | 67 | 85 | 29.61 | WSW | 0 | 0.00 |
| 21 | 07/21 | 04:00 | 73 | 67 | 83 | 29.61 | W | 0 | 0.00 |
| 22 | 07/21 | 03:00 | 74 | 68 | 82 | 29.62 | SSW | 0 | 0.00 |
| 23 | 07/21 | 02:00 | 74 | 68 | 83 | 29.61 | WNW | 0 | 0.00 |
| 24 | 07/21 | 01:00 | 75 | 69 | 82 | 29.61 | SW | 0 | 0.00 |